AirNav   Pilot Hours Calculator
 
 1587 users online  

6F7 Manning Field Airport
Jefferson, Texas, USA

GOING TO JEFFERSON?


FAA INFORMATION EFFECTIVE 20 MAY 2021

Location

FAA Identifier: 6F7
Lat/Long: 32-49-37.2000N 094-21-16.3000W
32-49.620000N 094-21.271667W
32.8270000,-94.3545278
(estimated)
Elevation: 320 ft. / 98 m (estimated)
Variation: 05E (1985)
From city: 4 miles N of JEFFERSON, TX
Time zone: UTC -5 (UTC -6 during Standard Time)
Zip code: 75657

Airport Operations

Airport use: Open to the public
Activation date: 08/1979
Control tower: no
ARTCC: FORT WORTH CENTER
FSS: FORT WORTH FLIGHT SERVICE STATION
NOTAMs facility: FTW (NOTAM-D service available)
Attendance: CONTINUOUS
Wind indicator: yes
Segmented circle: no

Airport Communications

CTAF: 122.9
WX AWOS-3 at ASL (19 nm S): 118.675 (903-938-2060)

Nearby radio navigation aids

VOR radial/distance  VOR name  Freq  Var
EICr270/27.7BELCHER VORTAC117.4007E
GGGr032/31.8GREGG COUNTY VORTAC112.9007E

 
NDB name  Hdg/Dist  Freq  Var  ID
ATLANTA202/18.634704EATA .- - .-
CARTHAGE352/38.933204ERPF .-. .--. ..-.

Airport Services

Parking: hangars and tiedowns
Bottled oxygen: NONE
Bulk oxygen: NONE

Runway Information

Runway 7/25

Dimensions: 3600 x 100 ft. / 1097 x 30 m
Surface: turf, in fair condition
RWY HAS A MOWED WITH OF 30 FEET.
RUNWAY 7  RUNWAY 25
Latitude: 32-49.524848N32-49.714153N
Longitude: 094-21.605702W094-20.939098W
Elevation: 308.0 ft.233.0 ft.
Traffic pattern: leftleft
Runway heading: 066 magnetic, 071 true246 magnetic, 251 true
Obstructions: 10 ft. road4 ft. fence

Airport Ownership and Management from official FAA records

Ownership: Privately-owned
Owner: ROGER MANNING
4702 N. US 59
JEFFERSON, TX 75657
Phone (903) 578-1504
Manager: ROGER MANNING
4702 N. US 59
JEFFERSON, TX 75657
Phone (903) 578-1504

Airport Operational Statistics

Aircraft based on the field: 4
Single engine airplanes: 3
Ultralights: 1
    
Aircraft operations: 150/year *
67% local general aviation
33% transient general aviation
* for 12-month period ending 23 March 2019

Additional Remarks

ULTRALIGHT ACTIVITY ON & INVOF ARPT.
RWY 07/25 ROLLING TERRAIN. RWY HAS 84 FT RISE IN ELEV FM THLD OF RWY 25 TO THLD OF RWY 07.
NO LINE OF SIGHT BTN RY ENDS.
RWY 07 28 FT POWER POLE 88 FT FM THLD - 162 FT L
RWY 25 10-60 FT TREES ALG EDGE OF RWY, BOTH SIDES.
FOR CD CTC FORT WORTH ARTCC AT 817-858-7584.

Instrument Procedures

There are no published instrument procedures at 6F7.

Some nearby airports with instrument procedures:

3F4 - Vivian Airport (17 nm E)
KATA - Hall-Miller Municipal Airport (18 nm NE)
KASL - Harrison County Airport (19 nm S)
KJXI - Fox Stephens Field - Gilmer Municipal Airport (31 nm W)
KGGG - East Texas Regional Airport (32 nm SW)
 
Loc | Ops | Rwys | IFR | FBO | Links
Com | Nav | Svcs | Stats | Notes
Area around 6F7 (Manning Field Airport)
 
Road maps at: MapQuest Bing Google
 
Aerial photo
WARNING: Photo may not be current or correct
Aerial photo of 6F7 (Manning Field Airport)
Photo by Carl Hennigan
Photo taken 09-Feb-2008

Do you have a better or more recent aerial photo of Manning Field Airport that you would like to share? If so, please send us your photo.

 
Sectional chart

 
Airport distance calculator
Flying to Manning Field Airport? Find the distance to fly.

From to 6F7

Sunrise and sunset
Times for 14-Jun-2021
 Local
(UTC-5)
 Zulu
(UTC)
Morning civil twilight05:4110:41
Sunrise06:1011:10
Sunset20:2601:26
Evening civil twilight20:5401:54

Current date and time
Zulu (UTC)  14-Jun-2021 20:18:14
Local (UTC-5)  14-Jun-2021 15:18:14
 
METAR
KASL 
19nm S 
141955Z AUTO 00000KT 10SM SCT055 33/21 A2998 RMK AO1 T03270206
KJXI 
31nm W 
141955Z AUTO 36003KT SCT046 33/23 A2998 RMK AO2 T03270225 PWINO
KGGG 
32nm SW 
141953Z 04004KT 10SM SCT055 34/21 A2995 RMK AO2 SLP134 T03440206
KSHV 
35nm SE 
141956Z 32004KT 10SM FEW060 SCT290 35/21 A2995 RMK AO2 SLP138 T03500211
KDTN 
35nm SE 
141953Z 35005KT 10SM BKN055 BKN070 34/21 A2995 RMK AO2 SLP140 T03390211
TAF
KGGG 
32nm SW 
141740Z 1418/1518 12007KT P6SM BKN028 FM141900 VRB05KT P6SM SCT035 FM150100 05003KT P6SM SKC
KSHV 
35nm SE 
141740Z 1418/1518 05009KT P6SM FEW050 BKN280 FM150100 VRB03KT P6SM SCT250 FM151500 08005KT P6SM SKC
KBAD 
40nm SE 
141200Z 1412/1518 05005KT 9999 SCT250 QNH2996INS BECMG 1416/1417 02007KT 9999 BKN050 QNH2989INS BECMG 1500/1501 03003KT 9999 SKC QNH2989INS TX36/1421Z TN23/1412Z
NOTAMs
Click for the latest NOTAMs
NOTAMs are issued by the DoD/FAA and will open in a separate window not controlled by AirNav.

 

 
 

Would you like to see your business listed on this page?

 If your business provides an interesting product or service to pilots, flight crews, aircraft, or users of the Manning Field Airport, you should consider listing it here.  To start the listing process, click on the button below
 
Add a business
 

Other Pages about Manning Field Airport

Update a link
 
Copyright © AirNav, LLC. All rights reserved. Privacy Policy  Contact